Time;durP1;ratioP1;P1;durP2;ratioP2;P2;SDS_P1;SDS_P2;PMS_P1;PMS_P2;Temp;Humidity;BMP_temperature;BMP_pressure;BME280_temperature;BME280_humidity;BME280_pressure;Samples;Min_cycle;Max_cycle;Signal;HPM_P1;HPM_P2
2023/05/21 00:00:11;;;;;;;9.13;7.05;;;;;;;;;;5108957;28;20039;-66
2023/05/21 00:02:36;;;;;;;11.80;7.15;;;;;;;;;;5110601;28;20077;-66
2023/05/21 00:05:02;;;;;;;11.30;7.85;;;;;;;;;;5110582;28;20027;-66
2023/05/21 00:07:27;;;;;;;9.25;7.13;;;;;;;;;;5112108;28;20212;-66
2023/05/21 00:09:52;;;;;;;11.82;7.28;;;;;;;;;;5110936;28;20020;-66
2023/05/21 00:12:17;;;;;;;10.43;7.97;;;;;;;;;;5111606;28;20051;-66
2023/05/21 00:14:43;;;;;;;8.90;7.57;;;;;;;;;;5111677;28;20031;-66
2023/05/21 00:17:08;;;;;;;10.48;8.13;;;;;;;;;;5108518;28;20100;-66
2023/05/21 00:19:33;;;;;;;10.43;8.00;;;;;;;;;;5100101;28;20537;-66
2023/05/21 00:22:01;;;;;;;10.35;7.60;;;;;;;;;;5110478;28;20012;-66
2023/05/21 00:24:27;;;;;;;12.18;8.60;;;;;;;;;;5111851;28;20028;-66
2023/05/21 00:26:52;;;;;;;10.65;8.18;;;;;;;;;;5108791;28;20023;-66
2023/05/21 00:29:17;;;;;;;9.57;7.95;;;;;;;;;;5094289;28;20020;-66
2023/05/21 00:31:42;;;;;;;12.57;9.48;;;;;;;;;;5111204;28;20119;-66
2023/05/21 00:34:08;;;;;;;9.77;8.48;;;;;;;;;;5102032;28;20017;-66
2023/05/21 00:36:33;;;;;;;12.93;8.27;;;;;;;;;;5107276;28;20020;-66
2023/05/21 00:38:58;;;;;;;11.15;8.38;;;;;;;;;;5094349;28;20024;-66
2023/05/21 00:41:24;;;;;;;11.93;8.90;;;;;;;;;;5095447;28;20067;-66
2023/05/21 00:43:51;;;;;;;12.25;8.50;;;;;;;;;;5093952;28;20068;-66
2023/05/21 00:46:18;;;;;;;11.60;7.40;;;;;;;;;;5095333;28;20091;-66
2023/05/21 00:48:43;;;;;;;8.52;7.55;;;;;;;;;;5093738;28;20024;-66
2023/05/21 00:51:09;;;;;;;8.60;7.18;;;;;;;;;;5094967;28;20074;-66
2023/05/21 00:53:34;;;;;;;11.63;8.35;;;;;;;;;;5093936;28;20031;-66
2023/05/21 00:56:00;;;;;;;11.32;8.63;;;;;;;;;;5094412;28;20040;-66
2023/05/21 00:58:26;;;;;;;16.33;9.43;;;;;;;;;;5092887;28;20024;-66
2023/05/21 01:00:54;;;;;;;13.15;10.80;;;;;;;;;;5094843;28;20467;-66
2023/05/21 01:03:20;;;;;;;14.20;10.73;;;;;;;;;;5092786;28;20024;-66
2023/05/21 01:05:45;;;;;;;13.70;10.20;;;;;;;;;;5097848;28;20027;-66
2023/05/21 01:08:11;;;;;;;14.27;10.07;;;;;;;;;;5099874;28;20487;-66
2023/05/21 01:10:36;;;;;;;11.55;9.35;;;;;;;;;;5109752;28;20031;-66
2023/05/21 01:13:02;;;;;;;12.75;11.45;;;;;;;;;;5111350;28;20497;-68
2023/05/21 01:15:27;;;;;;;19.27;11.38;;;;;;;;;;5110328;28;20042;-66
2023/05/21 01:17:53;;;;;;;13.23;9.77;;;;;;;;;;5107169;28;20474;-66
2023/05/21 01:20:18;;;;;;;15.70;10.70;;;;;;;;;;5111270;28;20378;-66
2023/05/21 01:22:50;;;;;;;13.75;10.52;;;;;;;;;;5099396;28;20023;-66
2023/05/21 01:25:15;;;;;;;13.80;10.63;;;;;;;;;;5090797;28;20019;-66
2023/05/21 01:27:40;;;;;;;12.65;10.85;;;;;;;;;;5091014;28;20463;-66
2023/05/21 01:30:07;;;;;;;13.88;11.52;;;;;;;;;;5110009;28;20023;-67
2023/05/21 01:32:36;;;;;;;16.77;11.65;;;;;;;;;;5111006;28;20061;-66
2023/05/21 01:35:08;;;;;;;14.40;11.55;;;;;;;;;;5109811;28;20027;-66
2023/05/21 01:37:36;;;;;;;12.88;10.57;;;;;;;;;;5110817;28;20031;-66
2023/05/21 01:40:05;;;;;;;13.45;11.82;;;;;;;;;;5104556;28;20111;-67
2023/05/21 01:42:30;;;;;;;16.33;11.18;;;;;;;;;;5104718;28;20100;-66
2023/05/21 01:44:58;;;;;;;12.85;10.75;;;;;;;;;;5092243;28;20470;-67
2023/05/21 01:47:25;;;;;;;12.27;10.90;;;;;;;;;;5092912;28;20040;-66
2023/05/21 01:49:51;;;;;;;14.13;11.35;;;;;;;;;;5104802;28;20008;-66
2023/05/21 01:52:16;;;;;;;13.18;11.00;;;;;;;;;;5093618;28;20049;-67
2023/05/21 01:54:41;;;;;;;13.27;10.38;;;;;;;;;;5104989;28;20114;-67
2023/05/21 01:57:06;;;;;;;17.10;11.52;;;;;;;;;;5093403;28;20028;-66
2023/05/21 01:59:32;;;;;;;14.52;11.52;;;;;;;;;;5094744;28;20016;-66
2023/05/21 02:01:57;;;;;;;15.05;11.70;;;;;;;;;;5091581;28;20364;-67
2023/05/21 02:04:22;;;;;;;14.20;10.70;;;;;;;;;;5091330;28;20067;-66
2023/05/21 02:06:48;;;;;;;16.52;11.93;;;;;;;;;;5091430;28;20470;-67
2023/05/21 02:09:13;;;;;;;12.43;11.13;;;;;;;;;;5091336;28;20084;-66
2023/05/21 02:11:38;;;;;;;12.98;11.68;;;;;;;;;;5092014;28;20048;-66
2023/05/21 02:14:04;;;;;;;20.38;11.93;;;;;;;;;;5092449;28;20481;-66
2023/05/21 02:16:29;;;;;;;15.05;11.00;;;;;;;;;;5104292;28;20039;-66
2023/05/21 02:18:56;;;;;;;12.73;11.00;;;;;;;;;;5108713;28;20466;-66
2023/05/21 02:21:21;;;;;;;19.42;13.93;;;;;;;;;;5110983;28;20012;-66
2023/05/21 02:23:47;;;;;;;17.08;12.63;;;;;;;;;;5104011;28;20051;-66
2023/05/21 02:26:12;;;;;;;16.88;11.85;;;;;;;;;;5093769;28;20014;-67
2023/05/21 02:28:37;;;;;;;14.82;12.50;;;;;;;;;;5103260;28;20470;-66
2023/05/21 02:31:02;;;;;;;12.57;11.23;;;;;;;;;;5103592;28;20080;-66
2023/05/21 02:33:28;;;;;;;16.92;12.35;;;;;;;;;;5109192;28;20023;-66
2023/05/21 02:35:53;;;;;;;12.88;11.48;;;;;;;;;;5108614;28;20023;-66
2023/05/21 02:38:21;;;;;;;14.02;11.93;;;;;;;;;;5110133;28;20389;-67
2023/05/21 02:40:47;;;;;;;18.85;12.35;;;;;;;;;;5099972;28;20020;-66
2023/05/21 02:43:12;;;;;;;15.85;12.18;;;;;;;;;;5107715;28;20027;-66
2023/05/21 02:45:37;;;;;;;17.17;12.23;;;;;;;;;;5110336;28;20137;-66
2023/05/21 02:48:03;;;;;;;13.10;11.80;;;;;;;;;;5107070;28;20035;-66
2023/05/21 02:50:28;;;;;;;16.85;12.63;;;;;;;;;;5090930;28;20038;-66
2023/05/21 02:52:53;;;;;;;15.05;12.20;;;;;;;;;;5098825;28;20019;-66
2023/05/21 02:55:18;;;;;;;15.32;12.40;;;;;;;;;;5105905;28;20030;-66
2023/05/21 02:57:44;;;;;;;14.43;12.40;;;;;;;;;;5110216;28;20023;-66
2023/05/21 03:00:10;;;;;;;15.75;12.35;;;;;;;;;;5109287;28;20069;-66
2023/05/21 03:02:35;;;;;;;15.20;12.68;;;;;;;;;;5109945;28;20053;-66
2023/05/21 03:05:01;;;;;;;16.65;12.52;;;;;;;;;;5108604;28;20032;-67
2023/05/21 03:07:26;;;;;;;16.70;13.43;;;;;;;;;;5109908;28;20027;-67
2023/05/21 03:09:52;;;;;;;16.42;12.77;;;;;;;;;;5109209;28;20101;-66
2023/05/21 03:12:17;;;;;;;13.30;11.85;;;;;;;;;;5109581;28;20762;-66
2023/05/21 03:14:43;;;;;;;14.15;11.35;;;;;;;;;;5109066;28;20028;-66
2023/05/21 03:17:12;;;;;;;18.40;12.77;;;;;;;;;;5109071;28;20039;-66
2023/05/21 03:19:38;;;;;;;16.73;12.60;;;;;;;;;;5109898;28;20107;-66
2023/05/21 03:22:03;;;;;;;12.70;11.38;;;;;;;;;;5112335;28;20090;-66
2023/05/21 03:24:31;;;;;;;14.45;11.88;;;;;;;;;;5113173;28;20139;-66
2023/05/21 03:26:58;;;;;;;13.57;11.80;;;;;;;;;;5112680;28;20015;-65
2023/05/21 03:29:23;;;;;;;21.50;13.15;;;;;;;;;;5113503;28;20030;-66
2023/05/21 03:31:48;;;;;;;12.57;11.18;;;;;;;;;;5112661;28;20437;-68
2023/05/21 03:34:14;;;;;;;14.27;11.48;;;;;;;;;;5113256;28;20023;-68
2023/05/21 03:36:40;;;;;;;13.73;11.35;;;;;;;;;;5093390;28;20378;-67
2023/05/21 03:39:05;;;;;;;16.75;12.48;;;;;;;;;;5093200;28;20028;-67
2023/05/21 03:41:31;;;;;;;14.10;12.05;;;;;;;;;;5106580;28;20095;-67
2023/05/21 03:43:56;;;;;;;12.57;11.32;;;;;;;;;;5106403;28;20032;-66
2023/05/21 03:46:21;;;;;;;14.20;11.23;;;;;;;;;;5093070;28;20081;-66
2023/05/21 03:48:48;;;;;;;12.18;10.75;;;;;;;;;;5093501;28;20035;-66
2023/05/21 03:51:14;;;;;;;16.48;12.57;;;;;;;;;;5092691;28;20036;-66
2023/05/21 03:53:40;;;;;;;12.63;11.32;;;;;;;;;;5092349;28;20074;-66
2023/05/21 03:56:05;;;;;;;19.25;11.82;;;;;;;;;;5092319;28;20059;-66
2023/05/21 03:58:30;;;;;;;14.50;11.52;;;;;;;;;;5092326;28;20034;-67
2023/05/21 04:00:55;;;;;;;16.02;11.10;;;;;;;;;;5092945;28;20024;-66
2023/05/21 04:03:21;;;;;;;12.93;11.63;;;;;;;;;;5093014;28;20030;-67
2023/05/21 04:05:47;;;;;;;14.73;11.02;;;;;;;;;;5092646;28;20089;-66
2023/05/21 04:08:12;;;;;;;26.27;11.80;;;;;;;;;;5093255;28;20108;-66
2023/05/21 04:10:38;;;;;;;12.27;10.98;;;;;;;;;;5093373;28;20116;-67
2023/05/21 04:13:03;;;;;;;15.73;10.85;;;;;;;;;;5093464;28;20028;-66
2023/05/21 04:15:28;;;;;;;12.68;11.40;;;;;;;;;;5106600;28;20051;-67
2023/05/21 04:17:53;;;;;;;13.98;10.82;;;;;;;;;;5104411;28;20027;-66
2023/05/21 04:20:19;;;;;;;16.15;11.15;;;;;;;;;;5112729;28;20474;-66
2023/05/21 04:22:44;;;;;;;12.95;10.02;;;;;;;;;;5112408;28;20027;-67
2023/05/21 04:25:09;;;;;;;14.43;9.93;;;;;;;;;;5111644;28;20072;-67
2023/05/21 04:27:35;;;;;;;19.02;10.95;;;;;;;;;;5112171;28;20023;-66
2023/05/21 04:30:03;;;;;;;11.35;9.18;;;;;;;;;;5111184;28;20019;-66
2023/05/21 04:32:29;;;;;;;15.63;10.77;;;;;;;;;;5111082;28;20023;-67
2023/05/21 04:34:55;;;;;;;17.13;11.43;;;;;;;;;;5111233;28;20035;-67
2023/05/21 04:37:23;;;;;;;12.25;10.27;;;;;;;;;;5111774;28;20032;-67
2023/05/21 04:39:48;;;;;;;12.15;10.70;;;;;;;;;;5110938;28;20482;-67
2023/05/21 04:42:13;;;;;;;16.45;11.38;;;;;;;;;;5110901;28;20038;-66
2023/05/21 04:44:43;;;;;;;14.45;10.98;;;;;;;;;;5103820;28;20023;-66
2023/05/21 04:47:09;;;;;;;11.30;9.93;;;;;;;;;;5111389;28;20116;-66
2023/05/21 04:49:34;;;;;;;11.45;10.27;;;;;;;;;;5110213;28;20027;-67
2023/05/21 04:52:00;;;;;;;13.38;10.02;;;;;;;;;;5110957;28;20649;-67
2023/05/21 04:54:26;;;;;;;12.52;10.25;;;;;;;;;;5109427;28;20020;-67
2023/05/21 04:56:51;;;;;;;12.13;10.25;;;;;;;;;;5111009;28;20466;-67
2023/05/21 04:59:17;;;;;;;10.60;9.18;;;;;;;;;;5109774;28;20054;-67
2023/05/21 05:01:42;;;;;;;14.52;11.23;;;;;;;;;;5110268;28;20034;-67
2023/05/21 05:04:08;;;;;;;13.60;10.02;;;;;;;;;;5109751;28;20035;-67
2023/05/21 05:06:33;;;;;;;14.18;10.55;;;;;;;;;;5111071;28;20023;-67
2023/05/21 05:08:58;;;;;;;13.25;10.20;;;;;;;;;;5109940;28;20032;-67
2023/05/21 05:11:24;;;;;;;10.48;9.40;;;;;;;;;;5110213;28;20038;-67
2023/05/21 05:13:49;;;;;;;12.23;9.75;;;;;;;;;;5108715;28;20027;-67
2023/05/21 05:16:23;;;;;;;14.77;10.95;;;;;;;;;;5109250;28;20035;-66
2023/05/21 05:18:48;;;;;;;11.13;8.00;;;;;;;;;;5107083;28;20043;-67
2023/05/21 05:21:14;;;;;;;12.88;9.32;;;;;;;;;;5092477;28;20020;-67
2023/05/21 05:23:39;;;;;;;11.65;10.07;;;;;;;;;;5102307;28;20027;-67
2023/05/21 05:26:04;;;;;;;15.55;9.20;;;;;;;;;;5096958;28;20095;-68
2023/05/21 05:28:30;;;;;;;11.70;8.63;;;;;;;;;;5110917;28;20028;-68
2023/05/21 05:30:55;;;;;;;10.73;8.98;;;;;;;;;;5110092;28;20027;-67
2023/05/21 05:33:20;;;;;;;10.38;9.20;;;;;;;;;;5093941;28;20729;-68
2023/05/21 05:35:45;;;;;;;10.23;8.48;;;;;;;;;;5094798;28;20104;-68
2023/05/21 05:38:12;;;;;;;12.85;9.43;;;;;;;;;;5104718;28;20355;-68
2023/05/21 05:40:37;;;;;;;15.43;8.80;;;;;;;;;;5095578;28;20035;-67
2023/05/21 05:43:02;;;;;;;11.48;9.43;;;;;;;;;;5110542;28;20031;-68
2023/05/21 05:45:28;;;;;;;12.13;9.00;;;;;;;;;;5108501;28;20094;-69
2023/05/21 05:47:53;;;;;;;10.70;9.45;;;;;;;;;;5110814;28;20053;-68
2023/05/21 05:50:18;;;;;;;10.50;9.15;;;;;;;;;;5109720;28;20114;-67
2023/05/21 05:52:43;;;;;;;11.43;8.95;;;;;;;;;;5111396;28;20076;-67
2023/05/21 05:55:11;;;;;;;14.38;9.25;;;;;;;;;;5109944;28;20469;-68
2023/05/21 05:57:36;;;;;;;12.68;9.05;;;;;;;;;;5099455;28;20024;-67
2023/05/21 06:00:02;;;;;;;11.38;9.18;;;;;;;;;;5101296;28;20356;-68
2023/05/21 06:02:27;;;;;;;14.70;8.60;;;;;;;;;;5106661;28;20024;-68
2023/05/21 06:04:52;;;;;;;9.50;8.02;;;;;;;;;;5102574;28;20024;-68
2023/05/21 06:07:17;;;;;;;10.70;9.18;;;;;;;;;;5106443;28;20342;-69
2023/05/21 06:09:43;;;;;;;11.25;9.25;;;;;;;;;;5098400;28;20043;-67
2023/05/21 06:12:08;;;;;;;11.18;9.05;;;;;;;;;;5098598;28;20091;-68
2023/05/21 06:14:33;;;;;;;11.85;8.85;;;;;;;;;;5080988;28;20054;-69
2023/05/21 06:16:58;;;;;;;14.85;8.65;;;;;;;;;;5104642;28;20091;-69
2023/05/21 06:19:24;;;;;;;11.37;8.87;;;;;;;;;;5099148;28;20039;-69
2023/05/21 06:21:49;;;;;;;13.45;7.78;;;;;;;;;;5104427;28;20402;-68
2023/05/21 06:24:14;;;;;;;11.02;8.95;;;;;;;;;;5104549;28;20018;-68
2023/05/21 06:26:40;;;;;;;10.85;9.23;;;;;;;;;;5105487;28;20042;-68
2023/05/21 06:29:06;;;;;;;11.60;8.80;;;;;;;;;;5093400;28;20069;-67
2023/05/21 06:31:31;;;;;;;9.38;8.43;;;;;;;;;;5094558;28;20016;-68
2023/05/21 06:33:57;;;;;;;16.45;9.68;;;;;;;;;;5092890;28;20024;-67
2023/05/21 06:36:24;;;;;;;10.40;8.18;;;;;;;;;;5094079;28;20039;-67
2023/05/21 06:38:50;;;;;;;10.25;8.57;;;;;;;;;;5093470;28;20034;-67
2023/05/21 06:41:15;;;;;;;10.77;8.60;;;;;;;;;;5076482;28;20016;-67
2023/05/21 06:43:40;;;;;;;13.52;8.68;;;;;;;;;;5092964;28;20100;-67
2023/05/21 06:46:06;;;;;;;10.57;8.25;;;;;;;;;;5098213;28;20428;-68
2023/05/21 06:48:31;;;;;;;11.93;9.18;;;;;;;;;;5110187;28;20079;-69
2023/05/21 06:50:56;;;;;;;11.70;9.23;;;;;;;;;;5092967;28;20019;-67
2023/05/21 06:53:21;;;;;;;10.95;9.32;;;;;;;;;;5090372;28;20620;-67
2023/05/21 06:55:47;;;;;;;11.50;9.40;;;;;;;;;;5091486;28;20028;-68
2023/05/21 06:58:13;;;;;;;14.32;8.98;;;;;;;;;;5093652;28;20458;-68
2023/05/21 07:00:38;;;;;;;13.73;9.10;;;;;;;;;;5106944;28;20043;-68
2023/05/21 07:03:03;;;;;;;14.05;9.55;;;;;;;;;;5094396;28;20390;-68
2023/05/21 07:05:28;;;;;;;12.20;9.30;;;;;;;;;;5095182;28;20027;-68
2023/05/21 07:07:54;;;;;;;11.35;8.55;;;;;;;;;;5094083;28;20024;-68
2023/05/21 07:10:19;;;;;;;11.27;8.63;;;;;;;;;;5096363;28;20454;-67
2023/05/21 07:12:44;;;;;;;13.23;8.68;;;;;;;;;;5095366;28;20382;-68
2023/05/21 07:15:10;;;;;;;12.23;9.05;;;;;;;;;;5096503;28;20022;-67
2023/05/21 07:17:36;;;;;;;11.48;8.48;;;;;;;;;;5104423;28;20039;-67
2023/05/21 07:20:01;;;;;;;13.50;9.00;;;;;;;;;;5100867;28;20540;-67
2023/05/21 07:22:26;;;;;;;11.57;9.10;;;;;;;;;;5105761;28;20028;-67
2023/05/21 07:24:52;;;;;;;12.20;9.17;;;;;;;;;;5095213;28;20102;-67
2023/05/21 07:27:17;;;;;;;13.53;9.73;;;;;;;;;;5105022;28;20285;-68
2023/05/21 07:29:42;;;;;;;14.00;9.70;;;;;;;;;;5099773;28;20319;-68
2023/05/21 07:32:07;;;;;;;12.35;10.27;;;;;;;;;;5103409;28;20040;-67
2023/05/21 07:34:33;;;;;;;11.87;9.70;;;;;;;;;;5093883;28;20036;-67
2023/05/21 07:36:58;;;;;;;13.43;9.52;;;;;;;;;;5093875;28;20286;-68
2023/05/21 07:39:23;;;;;;;10.52;9.23;;;;;;;;;;5093984;28;20107;-67
2023/05/21 07:41:48;;;;;;;12.63;10.07;;;;;;;;;;5093900;28;20020;-68
2023/05/21 07:44:13;;;;;;;12.80;9.30;;;;;;;;;;5094128;28;20327;-68
2023/05/21 07:46:39;;;;;;;11.47;9.83;;;;;;;;;;5092667;28;20032;-68
2023/05/21 07:49:04;;;;;;;11.68;10.18;;;;;;;;;;5074521;28;20936;-67
2023/05/21 07:51:30;;;;;;;16.70;8.48;;;;;;;;;;5092707;28;20028;-67
2023/05/21 07:53:55;;;;;;;11.35;9.93;;;;;;;;;;5093005;28;20024;-66
2023/05/21 07:56:20;;;;;;;11.48;9.68;;;;;;;;;;5093767;28;20581;-68
2023/05/21 07:58:46;;;;;;;10.98;8.63;;;;;;;;;;5094342;28;20036;-68
2023/05/21 08:01:11;;;;;;;14.02;10.30;;;;;;;;;;5093094;28;20028;-68
2023/05/21 08:03:36;;;;;;;11.15;9.65;;;;;;;;;;5097173;28;20111;-68
2023/05/21 08:06:02;;;;;;;13.40;9.82;;;;;;;;;;5113277;28;20051;-67
2023/05/21 08:08:27;;;;;;;15.02;9.40;;;;;;;;;;5108762;28;20043;-67
2023/05/21 08:10:52;;;;;;;13.27;10.35;;;;;;;;;;5110621;28;20024;-68
2023/05/21 08:13:18;;;;;;;12.90;9.70;;;;;;;;;;5109909;28;20043;-67
2023/05/21 08:15:43;;;;;;;13.20;10.80;;;;;;;;;;5111548;28;20049;-67
2023/05/21 08:18:08;;;;;;;12.90;10.07;;;;;;;;;;5097749;28;20099;-68
2023/05/21 08:20:34;;;;;;;11.60;9.27;;;;;;;;;;5091845;28;20111;-66
2023/05/21 08:22:59;;;;;;;16.70;9.77;;;;;;;;;;5105734;28;20024;-68
2023/05/21 08:25:26;;;;;;;13.45;10.38;;;;;;;;;;5112586;28;20100;-67
2023/05/21 08:27:52;;;;;;;15.90;11.38;;;;;;;;;;5111837;28;20039;-68
2023/05/21 08:30:17;;;;;;;12.05;10.02;;;;;;;;;;5112155;28;20019;-68
2023/05/21 08:32:42;;;;;;;11.82;8.85;;;;;;;;;;5111682;28;20023;-64
2023/05/21 08:35:08;;;;;;;11.13;9.32;;;;;;;;;;5102592;28;20024;-68
2023/05/21 08:37:33;;;;;;;17.10;10.40;;;;;;;;;;5093367;28;20054;-67
2023/05/21 08:39:58;;;;;;;14.45;11.00;;;;;;;;;;5091991;28;20016;-65
2023/05/21 08:42:37;;;;;;;13.95;10.43;;;;;;;;;;5093088;28;20099;-65
2023/05/21 08:45:04;;;;;;;11.75;10.32;;;;;;;;;;5103679;28;20390;-67
2023/05/21 08:47:31;;;;;;;11.32;10.13;;;;;;;;;;5107920;28;20116;-66
2023/05/21 08:49:57;;;;;;;10.85;9.13;;;;;;;;;;5093306;28;20028;-66
2023/05/21 08:52:23;;;;;;;13.75;10.75;;;;;;;;;;5093458;28;20180;-67
2023/05/21 08:54:50;;;;;;;12.27;9.95;;;;;;;;;;5092303;28;20471;-67
2023/05/21 08:57:16;;;;;;;13.52;11.05;;;;;;;;;;5093938;28;20032;-68
2023/05/21 08:59:43;;;;;;;11.70;10.55;;;;;;;;;;5093405;28;20486;-68
2023/05/21 09:02:11;;;;;;;11.68;9.73;;;;;;;;;;5097955;28;20103;-68
2023/05/21 09:04:37;;;;;;;12.18;9.93;;;;;;;;;;5111573;28;20019;-67
2023/05/21 09:07:03;;;;;;;15.02;10.48;;;;;;;;;;5100175;28;20022;-65
2023/05/21 09:09:40;;;;;;;14.02;10.93;;;;;;;;;;5100605;28;20103;-66
2023/05/21 09:12:06;;;;;;;12.35;10.75;;;;;;;;;;5092754;28;20038;-67
2023/05/21 09:14:31;;;;;;;13.88;12.27;;;;;;;;;;5092438;28;20482;-68
2023/05/21 09:16:57;;;;;;;16.70;12.05;;;;;;;;;;5094870;28;20030;-67
2023/05/21 09:19:22;;;;;;;13.38;11.27;;;;;;;;;;5100848;28;20036;-68
2023/05/21 09:21:49;;;;;;;14.47;11.03;;;;;;;;;;5091672;28;20390;-67
2023/05/21 09:24:16;;;;;;;12.02;10.30;;;;;;;;;;5101655;28;21016;-68
2023/05/21 09:26:41;;;;;;;14.95;11.00;;;;;;;;;;5101563;28;20076;-68
2023/05/21 09:29:07;;;;;;;15.55;11.77;;;;;;;;;;5111112;28;20020;-68
2023/05/21 09:31:32;;;;;;;17.63;11.98;;;;;;;;;;5104085;28;20433;-68
2023/05/21 09:33:57;;;;;;;12.65;11.32;;;;;;;;;;5104020;28;20055;-69
2023/05/21 09:36:23;;;;;;;15.45;11.52;;;;;;;;;;5109464;28;20027;-68
2023/05/21 09:38:50;;;;;;;13.43;10.77;;;;;;;;;;5111321;28;20137;-68
2023/05/21 09:41:16;;;;;;;14.65;11.02;;;;;;;;;;5092252;28;20032;-69
2023/05/21 09:43:42;;;;;;;16.23;11.13;;;;;;;;;;5101247;28;20089;-68
2023/05/21 09:46:08;;;;;;;12.55;11.02;;;;;;;;;;5107256;28;20041;-68
2023/05/21 09:48:40;;;;;;;15.15;11.43;;;;;;;;;;5107431;28;20027;-68
2023/05/21 09:51:09;;;;;;;14.27;11.13;;;;;;;;;;5108309;28;20478;-68
2023/05/21 09:53:34;;;;;;;18.08;11.02;;;;;;;;;;5106909;28;20132;-68
2023/05/21 09:55:59;;;;;;;12.85;11.43;;;;;;;;;;5097196;28;20055;-68
2023/05/21 09:58:25;;;;;;;15.80;12.63;;;;;;;;;;5096130;28;20048;-67
2023/05/21 10:00:51;;;;;;;16.02;12.18;;;;;;;;;;5095292;28;20506;-68
2023/05/21 10:03:16;;;;;;;13.70;11.55;;;;;;;;;;5103393;28;20049;-67
2023/05/21 10:05:42;;;;;;;12.73;11.40;;;;;;;;;;5100516;28;20059;-67
2023/05/21 10:08:08;;;;;;;13.05;11.18;;;;;;;;;;5104316;28;20378;-67
2023/05/21 10:10:34;;;;;;;14.88;12.00;;;;;;;;;;5106280;28;20112;-75
2023/05/21 10:13:03;;;;;;;15.88;12.52;;;;;;;;;;5100970;28;20032;-64
2023/05/21 10:15:30;;;;;;;18.92;13.23;;;;;;;;;;5097466;28;20028;-65
2023/05/21 10:17:56;;;;;;;13.93;11.20;;;;;;;;;;5107600;28;20548;-66
2023/05/21 10:20:21;;;;;;;15.27;11.45;;;;;;;;;;5091737;28;20051;-65
2023/05/21 10:22:47;;;;;;;13.88;11.85;;;;;;;;;;5101426;28;20474;-67
2023/05/21 10:25:12;;;;;;;13.95;12.55;;;;;;;;;;5100071;28;20027;-65
2023/05/21 10:27:38;;;;;;;14.75;12.52;;;;;;;;;;5091251;28;20023;-66
2023/05/21 10:30:04;;;;;;;13.90;11.00;;;;;;;;;;5097954;28;20024;-66
2023/05/21 10:32:30;;;;;;;16.17;12.70;;;;;;;;;;5098615;28;20432;-66
2023/05/21 10:34:55;;;;;;;14.32;12.20;;;;;;;;;;5101401;28;20020;-67
2023/05/21 10:37:27;;;;;;;35.67;12.75;;;;;;;;;;5095895;28;20051;-67
2023/05/21 10:39:53;;;;;;;15.13;13.30;;;;;;;;;;5099576;28;20069;-66
2023/05/21 10:42:18;;;;;;;17.48;13.00;;;;;;;;;;5098652;28;20121;-67
2023/05/21 10:44:44;;;;;;;19.88;12.15;;;;;;;;;;5095142;28;20032;-67
2023/05/21 10:47:28;;;;;;;16.63;12.85;;;;;;;;;;5090236;28;20099;-65
2023/05/21 10:50:16;;;;;;;15.43;13.00;;;;;;;;;;5094296;28;20077;-64
2023/05/21 10:52:56;;;;;;;14.95;12.60;;;;;;;;;;5061954;28;20107;-65
2023/05/21 10:55:31;;;;;;;16.45;13.07;;;;;;;;;;5107253;28;20382;-66
2023/05/21 10:57:56;;;;;;;20.63;13.52;;;;;;;;;;5105161;28;20385;-68
2023/05/21 11:00:23;;;;;;;18.47;12.53;;;;;;;;;;5106726;28;20115;-66
2023/05/21 11:02:51;;;;;;;15.23;13.60;;;;;;;;;;5104465;28;20059;-69
2023/05/21 11:05:33;;;;;;;17.58;15.02;;;;;;;;;;5100465;28;20048;-67
2023/05/21 11:08:00;;;;;;;16.80;14.52;;;;;;;;;;5096937;28;20473;-64
2023/05/21 11:10:39;;;;;;;16.33;14.27;;;;;;;;;;5107475;28;20050;-66
2023/05/21 11:13:09;;;;;;;16.80;15.13;;;;;;;;;;5109699;28;20508;-65
2023/05/21 11:15:53;;;;;;;16.42;14.35;;;;;;;;;;5107143;28;20527;-68
2023/05/21 11:18:19;;;;;;;16.58;13.88;;;;;;;;;;5096089;28;20486;-68
2023/05/21 11:20:49;;;;;;;20.42;13.45;;;;;;;;;;5095342;28;20030;-66
2023/05/21 11:23:15;;;;;;;21.00;14.00;;;;;;;;;;5101340;28;20068;-67
2023/05/21 11:25:40;;;;;;;17.27;15.03;;;;;;;;;;5096446;28;20416;-66
2023/05/21 11:28:08;;;;;;;23.17;14.77;;;;;;;;;;5108197;28;20265;-66
2023/05/21 11:30:33;;;;;;;16.45;13.05;;;;;;;;;;5109139;28;20035;-68
2023/05/21 11:33:12;;;;;;;16.67;14.00;;;;;;;;;;5106670;28;20023;-64
2023/05/21 11:35:37;;;;;;;22.75;13.23;;;;;;;;;;5107166;28;20073;-68
2023/05/21 11:38:03;;;;;;;20.08;14.10;;;;;;;;;;5107267;28;20420;-67
2023/05/21 11:40:29;;;;;;;18.08;13.27;;;;;;;;;;5106056;28;20028;-67
2023/05/21 11:42:55;;;;;;;16.42;12.82;;;;;;;;;;5101250;28;20072;-67
2023/05/21 11:45:21;;;;;;;14.18;12.73;;;;;;;;;;5093925;28;20024;-67
2023/05/21 11:47:48;;;;;;;15.73;13.82;;;;;;;;;;5100802;28;20020;-67
2023/05/21 11:50:14;;;;;;;15.60;13.43;;;;;;;;;;5101804;28;20111;-67
2023/05/21 11:52:40;;;;;;;15.13;12.68;;;;;;;;;;5096400;28;20028;-66
2023/05/21 11:55:06;;;;;;;17.77;12.27;;;;;;;;;;5095748;28;20406;-67
2023/05/21 11:57:31;;;;;;;15.15;12.93;;;;;;;;;;5094706;28;20032;-65
2023/05/21 11:59:58;;;;;;;26.13;13.82;;;;;;;;;;5094576;28;20024;-64
2023/05/21 12:02:23;;;;;;;14.57;12.32;;;;;;;;;;5101385;28;20023;-67
2023/05/21 12:04:49;;;;;;;15.30;13.13;;;;;;;;;;5094870;28;20031;-64
2023/05/21 12:07:18;;;;;;;15.15;12.82;;;;;;;;;;5095282;28;20479;-66
2023/05/21 12:09:44;;;;;;;22.05;13.52;;;;;;;;;;5096647;28;20035;-67
2023/05/21 12:12:12;;;;;;;15.30;13.75;;;;;;;;;;5094546;28;20027;-67
2023/05/21 12:14:37;;;;;;;19.55;13.10;;;;;;;;;;5103052;28;20028;-66
2023/05/21 12:17:03;;;;;;;17.38;12.68;;;;;;;;;;5107143;28;20382;-66
2023/05/21 12:19:32;;;;;;;19.33;13.93;;;;;;;;;;5110239;28;20043;-66
2023/05/21 12:21:59;;;;;;;16.38;12.63;;;;;;;;;;5104622;28;20100;-66
2023/05/21 12:24:24;;;;;;;17.42;13.05;;;;;;;;;;5108094;28;20042;-66
2023/05/21 12:26:50;;;;;;;20.55;11.48;;;;;;;;;;5108642;28;20047;-66
2023/05/21 12:29:16;;;;;;;16.58;12.85;;;;;;;;;;5098919;28;20044;-66
2023/05/21 12:31:50;;;;;;;15.10;13.52;;;;;;;;;;5103406;28;20056;-67
2023/05/21 12:34:35;;;;;;;17.55;14.20;;;;;;;;;;5107696;28;20027;-66
2023/05/21 12:37:00;;;;;;;25.52;12.75;;;;;;;;;;5105617;28;20038;-66
2023/05/21 12:39:26;;;;;;;18.77;15.25;;;;;;;;;;5096378;28;20110;-66
2023/05/21 12:41:53;;;;;;;18.55;13.63;;;;;;;;;;5093643;28;20085;-66
2023/05/21 12:44:18;;;;;;;17.67;14.55;;;;;;;;;;5097338;28;20074;-65
2023/05/21 12:46:44;;;;;;;14.33;12.83;;;;;;;;;;5102448;28;20063;-65
2023/05/21 12:49:29;;;;;;;19.40;14.40;;;;;;;;;;5109552;28;20295;-67
2023/05/21 12:51:55;;;;;;;17.05;14.85;;;;;;;;;;5110554;28;20277;-67
2023/05/21 12:54:27;;;;;;;20.77;15.65;;;;;;;;;;5108356;28;20362;-67
2023/05/21 12:56:52;;;;;;;17.73;15.57;;;;;;;;;;5079312;28;20032;-67
2023/05/21 12:59:17;;;;;;;17.03;13.73;;;;;;;;;;5106101;28;20020;-66
2023/05/21 13:01:46;;;;;;;18.25;13.82;;;;;;;;;;5106816;28;20282;-64
2023/05/21 13:04:11;;;;;;;22.40;14.98;;;;;;;;;;5109189;28;20065;-64
2023/05/21 13:06:42;;;;;;;16.30;12.80;;;;;;;;;;5108412;28;20024;-65
2023/05/21 13:09:07;;;;;;;16.65;12.65;;;;;;;;;;5098648;28;20657;-66
2023/05/21 13:11:33;;;;;;;17.55;14.05;;;;;;;;;;5102621;28;20077;-66
2023/05/21 13:13:58;;;;;;;20.40;12.53;;;;;;;;;;5093133;28;20027;-66
2023/05/21 13:16:23;;;;;;;15.52;12.90;;;;;;;;;;5107545;28;20289;-66
2023/05/21 13:18:48;;;;;;;18.07;12.93;;;;;;;;;;5110742;28;20030;-65
2023/05/21 13:21:14;;;;;;;16.27;13.90;;;;;;;;;;5099159;28;20408;-66
2023/05/21 13:23:39;;;;;;;14.48;12.27;;;;;;;;;;5108197;28;20639;-67
2023/05/21 13:26:04;;;;;;;17.42;14.48;;;;;;;;;;5110074;28;20081;-67
2023/05/21 13:28:30;;;;;;;15.93;14.07;;;;;;;;;;5110576;28;20067;-67
2023/05/21 13:30:55;;;;;;;15.82;13.40;;;;;;;;;;5103001;28;20292;-65
2023/05/21 13:33:20;;;;;;;16.27;13.07;;;;;;;;;;5109740;28;20032;-67
2023/05/21 13:35:49;;;;;;;17.40;13.27;;;;;;;;;;5099817;28;20768;-67
2023/05/21 13:38:15;;;;;;;16.33;12.13;;;;;;;;;;5091328;28;20281;-67
2023/05/21 13:40:40;;;;;;;18.23;12.52;;;;;;;;;;5090436;28;20047;-64
2023/05/21 13:43:05;;;;;;;18.27;13.57;;;;;;;;;;5092797;28;20019;-63
2023/05/21 13:45:31;;;;;;;15.40;13.73;;;;;;;;;;5109179;28;20023;-64
2023/05/21 13:47:56;;;;;;;15.75;13.27;;;;;;;;;;5108919;28;20636;-67
2023/05/21 13:50:22;;;;;;;15.18;12.75;;;;;;;;;;5109625;28;20032;-66
2023/05/21 13:52:47;;;;;;;14.55;13.05;;;;;;;;;;5109893;28;20024;-66
2023/05/21 13:55:14;;;;;;;16.60;12.73;;;;;;;;;;5108940;28;20027;-67
2023/05/21 13:57:40;;;;;;;16.02;13.32;;;;;;;;;;5109440;28;21461;-67
2023/05/21 14:00:07;;;;;;;21.02;13.52;;;;;;;;;;5105594;28;20035;-67
2023/05/21 14:02:33;;;;;;;17.83;13.88;;;;;;;;;;5105587;28;20558;-67
2023/05/21 14:04:58;;;;;;;18.85;14.55;;;;;;;;;;5099791;28;20115;-68
2023/05/21 14:07:23;;;;;;;19.90;13.63;;;;;;;;;;5105020;28;20111;-68
2023/05/21 14:09:49;;;;;;;20.23;13.15;;;;;;;;;;5099448;28;20016;-69
2023/05/21 14:12:15;;;;;;;15.48;13.93;;;;;;;;;;5099110;28;20509;-68
2023/05/21 14:14:41;;;;;;;15.40;11.55;;;;;;;;;;5101285;28;20028;-68